sensor_id;sensor_type;location;lat;lon;timestamp;pressure;altitude;pressure_sealevel;temperature;humidity
7614;BME280;3848;42.016;23.098;2022-08-16T00:02:24;96666.63;;;20.52;100.00
7614;BME280;3848;42.016;23.098;2022-08-16T00:04:51;96671.19;;;20.47;100.00
7614;BME280;3848;42.016;23.098;2022-08-16T00:07:18;96679.19;;;20.43;100.00
7614;BME280;3848;42.016;23.098;2022-08-16T00:09:45;96673.56;;;20.34;100.00
7614;BME280;3848;42.016;23.098;2022-08-16T00:12:12;96669.25;;;20.35;100.00
7614;BME280;3848;42.016;23.098;2022-08-16T00:14:39;96672.75;;;20.34;100.00
7614;BME280;3848;42.016;23.098;2022-08-16T00:17:06;96671.06;;;20.33;100.00
7614;BME280;3848;42.016;23.098;2022-08-16T00:19:34;96666.09;;;20.30;100.00
7614;BME280;3848;42.016;23.098;2022-08-16T00:22:02;96671.59;;;20.24;100.00
7614;BME280;3848;42.016;23.098;2022-08-16T00:24:29;96677.16;;;20.16;100.00
7614;BME280;3848;42.016;23.098;2022-08-16T00:26:56;96675.72;;;20.10;100.00
7614;BME280;3848;42.016;23.098;2022-08-16T00:29:23;96672.56;;;20.05;100.00
7614;BME280;3848;42.016;23.098;2022-08-16T00:31:51;96680.66;;;19.99;100.00
7614;BME280;3848;42.016;23.098;2022-08-16T00:34:19;96681.69;;;19.95;100.00
7614;BME280;3848;42.016;23.098;2022-08-16T00:36:48;96691.78;;;20.00;100.00
7614;BME280;3848;42.016;23.098;2022-08-16T00:39:16;96692.25;;;19.91;100.00
7614;BME280;3848;42.016;23.098;2022-08-16T00:41:46;96683.84;;;19.87;100.00
7614;BME280;3848;42.016;23.098;2022-08-16T00:44:14;96696.81;;;19.86;100.00
7614;BME280;3848;42.016;23.098;2022-08-16T00:46:47;96688.34;;;19.84;100.00
7614;BME280;3848;42.016;23.098;2022-08-16T00:49:16;96694.63;;;19.78;100.00
7614;BME280;3848;42.016;23.098;2022-08-16T00:51:43;96703.22;;;19.78;100.00
7614;BME280;3848;42.016;23.098;2022-08-16T00:54:12;96706.56;;;19.81;100.00
7614;BME280;3848;42.016;23.098;2022-08-16T00:56:42;96709.06;;;19.82;100.00
7614;BME280;3848;42.016;23.098;2022-08-16T00:59:10;96709.97;;;19.81;100.00
7614;BME280;3848;42.016;23.098;2022-08-16T01:01:39;96708.13;;;19.83;100.00
7614;BME280;3848;42.016;23.098;2022-08-16T01:04:06;96710.47;;;19.88;100.00
7614;BME280;3848;42.016;23.098;2022-08-16T01:06:35;96717.88;;;19.94;100.00
7614;BME280;3848;42.016;23.098;2022-08-16T01:09:03;96718.13;;;19.89;100.00
7614;BME280;3848;42.016;23.098;2022-08-16T01:11:35;96718.56;;;19.97;100.00
7614;BME280;3848;42.016;23.098;2022-08-16T01:14:06;96714.19;;;19.99;100.00
7614;BME280;3848;42.016;23.098;2022-08-16T01:16:35;96721.47;;;19.91;100.00
7614;BME280;3848;42.016;23.098;2022-08-16T01:19:10;96728.44;;;19.89;100.00
7614;BME280;3848;42.016;23.098;2022-08-16T01:21:46;96736.44;;;19.85;100.00
7614;BME280;3848;42.016;23.098;2022-08-16T01:24:23;96727.84;;;19.84;100.00
7614;BME280;3848;42.016;23.098;2022-08-16T01:26:53;96720.28;;;19.81;100.00
7614;BME280;3848;42.016;23.098;2022-08-16T01:29:25;96725.94;;;19.88;100.00
7614;BME280;3848;42.016;23.098;2022-08-16T01:31:53;96722.94;;;19.79;100.00
7614;BME280;3848;42.016;23.098;2022-08-16T01:34:21;96729.00;;;19.78;100.00
7614;BME280;3848;42.016;23.098;2022-08-16T01:36:48;96743.19;;;19.70;100.00
7614;BME280;3848;42.016;23.098;2022-08-16T01:39:23;96731.38;;;19.66;100.00
7614;BME280;3848;42.016;23.098;2022-08-16T01:41:50;96735.84;;;19.62;100.00
7614;BME280;3848;42.016;23.098;2022-08-16T01:44:16;96740.34;;;19.59;100.00
7614;BME280;3848;42.016;23.098;2022-08-16T01:46:46;96734.34;;;19.58;100.00
7614;BME280;3848;42.016;23.098;2022-08-16T01:49:16;96741.09;;;19.61;100.00
7614;BME280;3848;42.016;23.098;2022-08-16T01:51:46;96724.25;;;19.54;100.00
7614;BME280;3848;42.016;23.098;2022-08-16T01:54:13;96747.81;;;19.63;100.00
7614;BME280;3848;42.016;23.098;2022-08-16T01:56:41;96745.50;;;19.59;100.00
7614;BME280;3848;42.016;23.098;2022-08-16T01:59:12;96740.59;;;19.53;100.00
7614;BME280;3848;42.016;23.098;2022-08-16T02:01:39;96750.91;;;19.53;100.00
7614;BME280;3848;42.016;23.098;2022-08-16T02:04:06;96740.97;;;19.45;100.00
7614;BME280;3848;42.016;23.098;2022-08-16T02:06:33;96741.41;;;19.36;100.00
7614;BME280;3848;42.016;23.098;2022-08-16T02:09:00;96732.25;;;19.30;100.00
7614;BME280;3848;42.016;23.098;2022-08-16T02:11:27;96732.19;;;19.32;100.00
7614;BME280;3848;42.016;23.098;2022-08-16T02:13:56;96734.22;;;19.25;100.00
7614;BME280;3848;42.016;23.098;2022-08-16T02:16:23;96736.56;;;19.30;100.00
7614;BME280;3848;42.016;23.098;2022-08-16T02:18:51;96742.78;;;19.26;100.00
7614;BME280;3848;42.016;23.098;2022-08-16T02:21:18;96734.75;;;19.32;100.00
7614;BME280;3848;42.016;23.098;2022-08-16T02:23:45;96741.50;;;19.34;100.00
7614;BME280;3848;42.016;23.098;2022-08-16T02:26:12;96750.38;;;19.29;100.00
7614;BME280;3848;42.016;23.098;2022-08-16T02:28:40;96755.91;;;19.21;100.00
7614;BME280;3848;42.016;23.098;2022-08-16T02:31:12;96745.59;;;19.21;100.00
7614;BME280;3848;42.016;23.098;2022-08-16T02:33:40;96755.91;;;19.21;100.00
7614;BME280;3848;42.016;23.098;2022-08-16T02:36:08;96761.88;;;19.22;100.00
7614;BME280;3848;42.016;23.098;2022-08-16T02:38:35;96759.38;;;19.20;100.00
7614;BME280;3848;42.016;23.098;2022-08-16T02:41:04;96757.78;;;19.17;100.00
7614;BME280;3848;42.016;23.098;2022-08-16T02:43:32;96763.91;;;19.15;100.00
7614;BME280;3848;42.016;23.098;2022-08-16T02:45:59;96776.03;;;19.13;100.00
7614;BME280;3848;42.016;23.098;2022-08-16T02:48:28;96775.13;;;19.14;100.00
7614;BME280;3848;42.016;23.098;2022-08-16T02:50:57;96777.91;;;19.09;100.00
7614;BME280;3848;42.016;23.098;2022-08-16T02:53:24;96775.72;;;19.02;100.00
7614;BME280;3848;42.016;23.098;2022-08-16T02:55:51;96785.88;;;19.05;100.00
7614;BME280;3848;42.016;23.098;2022-08-16T02:58:18;96791.84;;;19.05;100.00
7614;BME280;3848;42.016;23.098;2022-08-16T03:00:46;96787.16;;;18.96;100.00
7614;BME280;3848;42.016;23.098;2022-08-16T03:03:13;96782.84;;;18.97;100.00
7614;BME280;3848;42.016;23.098;2022-08-16T03:05:41;96786.16;;;18.99;100.00
7614;BME280;3848;42.016;23.098;2022-08-16T03:08:08;96777.81;;;18.94;100.00
7614;BME280;3848;42.016;23.098;2022-08-16T03:10:35;96772.81;;;18.91;100.00
7614;BME280;3848;42.016;23.098;2022-08-16T03:13:02;96772.66;;;18.94;100.00
7614;BME280;3848;42.016;23.098;2022-08-16T03:15:29;96769.63;;;18.85;100.00
7614;BME280;3848;42.016;23.098;2022-08-16T03:17:56;96769.00;;;18.80;100.00
7614;BME280;3848;42.016;23.098;2022-08-16T03:20:24;96767.41;;;18.78;100.00
7614;BME280;3848;42.016;23.098;2022-08-16T03:22:52;96771.72;;;18.77;100.00
7614;BME280;3848;42.016;23.098;2022-08-16T03:25:19;96778.53;;;18.78;100.00
7614;BME280;3848;42.016;23.098;2022-08-16T03:27:46;96775.31;;;18.73;100.00
7614;BME280;3848;42.016;23.098;2022-08-16T03:30:14;96771.91;;;18.73;100.00
7614;BME280;3848;42.016;23.098;2022-08-16T03:32:42;96776.94;;;18.76;100.00
7614;BME280;3848;42.016;23.098;2022-08-16T03:35:09;96785.50;;;18.76;100.00
7614;BME280;3848;42.016;23.098;2022-08-16T03:37:36;96762.38;;;18.56;100.00
7614;BME280;3848;42.016;23.098;2022-08-16T03:40:10;96796.56;;;18.78;100.00
7614;BME280;3848;42.016;23.098;2022-08-16T03:42:38;96807.53;;;18.82;100.00
7614;BME280;3848;42.016;23.098;2022-08-16T03:45:06;96801.63;;;18.80;100.00
7614;BME280;3848;42.016;23.098;2022-08-16T03:47:33;96801.41;;;18.84;100.00
7614;BME280;3848;42.016;23.098;2022-08-16T03:50:01;96796.88;;;18.89;100.00
7614;BME280;3848;42.016;23.098;2022-08-16T03:52:28;96790.75;;;18.92;100.00
7614;BME280;3848;42.016;23.098;2022-08-16T03:54:55;96796.13;;;18.87;100.00
7614;BME280;3848;42.016;23.098;2022-08-16T03:57:23;96805.94;;;18.79;100.00
7614;BME280;3848;42.016;23.098;2022-08-16T03:59:50;96823.53;;;18.70;100.00
7614;BME280;3848;42.016;23.098;2022-08-16T04:02:17;96827.94;;;18.68;100.00
7614;BME280;3848;42.016;23.098;2022-08-16T04:04:44;96834.47;;;18.75;100.00
7614;BME280;3848;42.016;23.098;2022-08-16T04:07:11;96831.91;;;18.75;100.00
7614;BME280;3848;42.016;23.098;2022-08-16T04:09:38;96835.09;;;18.80;100.00
7614;BME280;3848;42.016;23.098;2022-08-16T04:12:06;96821.19;;;18.84;100.00
7614;BME280;3848;42.016;23.098;2022-08-16T04:14:34;96831.88;;;18.94;100.00
7614;BME280;3848;42.016;23.098;2022-08-16T04:17:02;96831.13;;;18.92;100.00
7614;BME280;3848;42.016;23.098;2022-08-16T04:19:29;96843.44;;;19.04;100.00
7614;BME280;3848;42.016;23.098;2022-08-16T04:21:59;96843.16;;;19.10;100.00
7614;BME280;3848;42.016;23.098;2022-08-16T04:24:26;96857.44;;;19.17;100.00
7614;BME280;3848;42.016;23.098;2022-08-16T04:26:52;96855.75;;;19.16;100.00
7614;BME280;3848;42.016;23.098;2022-08-16T04:29:19;96846.16;;;19.19;100.00
7614;BME280;3848;42.016;23.098;2022-08-16T04:31:49;96846.06;;;19.21;100.00
7614;BME280;3848;42.016;23.098;2022-08-16T04:34:16;96834.50;;;19.11;100.00
7614;BME280;3848;42.016;23.098;2022-08-16T04:36:42;96842.66;;;19.21;100.00
7614;BME280;3848;42.016;23.098;2022-08-16T04:39:10;96843.19;;;19.27;100.00
7614;BME280;3848;42.016;23.098;2022-08-16T04:41:36;96849.03;;;19.31;100.00
7614;BME280;3848;42.016;23.098;2022-08-16T04:44:04;96856.84;;;19.29;100.00
7614;BME280;3848;42.016;23.098;2022-08-16T04:46:30;96846.38;;;19.32;100.00
7614;BME280;3848;42.016;23.098;2022-08-16T04:48:59;96839.97;;;19.41;100.00
7614;BME280;3848;42.016;23.098;2022-08-16T04:51:26;96841.47;;;19.45;100.00
7614;BME280;3848;42.016;23.098;2022-08-16T04:53:53;96831.09;;;19.46;100.00
7614;BME280;3848;42.016;23.098;2022-08-16T04:56:20;96831.59;;;19.55;100.00
7614;BME280;3848;42.016;23.098;2022-08-16T04:58:47;96823.66;;;19.59;100.00
7614;BME280;3848;42.016;23.098;2022-08-16T05:01:14;96826.91;;;19.63;100.00
7614;BME280;3848;42.016;23.098;2022-08-16T05:03:42;96826.75;;;19.66;100.00
7614;BME280;3848;42.016;23.098;2022-08-16T05:06:10;96818.78;;;19.70;100.00
7614;BME280;3848;42.016;23.098;2022-08-16T05:08:38;96817.56;;;19.77;100.00
7614;BME280;3848;42.016;23.098;2022-08-16T05:11:07;96768.34;;;19.47;100.00
7614;BME280;3848;42.016;23.098;2022-08-16T05:13:39;96820.09;;;19.79;100.00
7614;BME280;3848;42.016;23.098;2022-08-16T05:16:08;96809.91;;;19.76;100.00
7614;BME280;3848;42.016;23.098;2022-08-16T05:18:35;96811.28;;;19.83;100.00
7614;BME280;3848;42.016;23.098;2022-08-16T05:21:03;96803.63;;;19.82;100.00
7614;BME280;3848;42.016;23.098;2022-08-16T05:23:32;96811.44;;;19.80;100.00
7614;BME280;3848;42.016;23.098;2022-08-16T05:25:59;96779.84;;;19.59;100.00
7614;BME280;3848;42.016;23.098;2022-08-16T05:28:27;96810.66;;;19.78;100.00
7614;BME280;3848;42.016;23.098;2022-08-16T05:30:54;96806.66;;;19.72;100.00
7614;BME280;3848;42.016;23.098;2022-08-16T05:33:20;96816.81;;;19.58;100.00
7614;BME280;3848;42.016;23.098;2022-08-16T05:35:49;96813.53;;;19.55;100.00
7614;BME280;3848;42.016;23.098;2022-08-16T05:38:16;96816.03;;;19.56;100.00
7614;BME280;3848;42.016;23.098;2022-08-16T05:40:53;96800.53;;;19.58;100.00
7614;BME280;3848;42.016;23.098;2022-08-16T05:43:20;96805.59;;;19.59;100.00
7614;BME280;3848;42.016;23.098;2022-08-16T05:45:47;96790.16;;;19.59;100.00
7614;BME280;3848;42.016;23.098;2022-08-16T05:48:14;96790.19;;;19.75;100.00
7614;BME280;3848;42.016;23.098;2022-08-16T05:50:41;96785.41;;;19.85;100.00
7614;BME280;3848;42.016;23.098;2022-08-16T05:53:08;96780.03;;;19.89;100.00
7614;BME280;3848;42.016;23.098;2022-08-16T05:55:35;96778.56;;;20.01;100.00
7614;BME280;3848;42.016;23.098;2022-08-16T05:58:03;96792.81;;;20.08;100.00
7614;BME280;3848;42.016;23.098;2022-08-16T06:00:30;96782.16;;;20.14;100.00
7614;BME280;3848;42.016;23.098;2022-08-16T06:02:57;96794.94;;;20.33;100.00
7614;BME280;3848;42.016;23.098;2022-08-16T06:05:24;96778.19;;;20.42;100.00
7614;BME280;3848;42.016;23.098;2022-08-16T06:07:51;96775.19;;;20.49;100.00
7614;BME280;3848;42.016;23.098;2022-08-16T06:10:19;96779.03;;;20.58;100.00
7614;BME280;3848;42.016;23.098;2022-08-16T06:12:46;96767.38;;;20.66;100.00
7614;BME280;3848;42.016;23.098;2022-08-16T06:15:17;96730.72;;;20.60;100.00
7614;BME280;3848;42.016;23.098;2022-08-16T06:17:44;96761.63;;;20.93;100.00
7614;BME280;3848;42.016;23.098;2022-08-16T06:20:14;96760.97;;;21.05;100.00
7614;BME280;3848;42.016;23.098;2022-08-16T06:22:41;96758.19;;;21.08;100.00
7614;BME280;3848;42.016;23.098;2022-08-16T06:25:10;96761.16;;;21.16;100.00
7614;BME280;3848;42.016;23.098;2022-08-16T06:27:37;96753.88;;;21.24;100.00
7614;BME280;3848;42.016;23.098;2022-08-16T06:30:05;96750.56;;;21.37;100.00
7614;BME280;3848;42.016;23.098;2022-08-16T06:32:34;96752.47;;;21.49;100.00
7614;BME280;3848;42.016;23.098;2022-08-16T06:35:01;96759.25;;;21.66;100.00
7614;BME280;3848;42.016;23.098;2022-08-16T06:37:28;96762.38;;;21.71;100.00
7614;BME280;3848;42.016;23.098;2022-08-16T06:39:55;96748.16;;;21.78;100.00
7614;BME280;3848;42.016;23.098;2022-08-16T06:42:22;96754.94;;;21.95;100.00
7614;BME280;3848;42.016;23.098;2022-08-16T06:44:49;96744.03;;;22.04;100.00
7614;BME280;3848;42.016;23.098;2022-08-16T06:47:16;96741.56;;;22.16;100.00
7614;BME280;3848;42.016;23.098;2022-08-16T06:49:44;96734.81;;;22.28;100.00
7614;BME280;3848;42.016;23.098;2022-08-16T06:52:11;96731.56;;;22.39;100.00
7614;BME280;3848;42.016;23.098;2022-08-16T06:54:38;96734.41;;;22.48;100.00
7614;BME280;3848;42.016;23.098;2022-08-16T06:57:05;96732.00;;;22.60;100.00
7614;BME280;3848;42.016;23.098;2022-08-16T06:59:32;96721.44;;;22.63;100.00
7614;BME280;3848;42.016;23.098;2022-08-16T07:07:43;96691.66;;;22.70;100.00
7614;BME280;3848;42.016;23.098;2022-08-16T07:10:10;96727.22;;;22.95;100.00
7614;BME280;3848;42.016;23.098;2022-08-16T07:12:37;96728.25;;;23.05;100.00
7614;BME280;3848;42.016;23.098;2022-08-16T07:15:05;96704.63;;;23.09;100.00
7614;BME280;3848;42.016;23.098;2022-08-16T07:17:32;96718.78;;;23.31;100.00
7614;BME280;3848;42.016;23.098;2022-08-16T07:20:03;96714.47;;;23.44;100.00
7614;BME280;3848;42.016;23.098;2022-08-16T07:22:31;96713.59;;;23.58;100.00
7614;BME280;3848;42.016;23.098;2022-08-16T07:25:00;96711.91;;;23.69;100.00
7614;BME280;3848;42.016;23.098;2022-08-16T07:27:27;96707.88;;;23.78;100.00
7614;BME280;3848;42.016;23.098;2022-08-16T07:29:54;96707.34;;;23.86;100.00
7614;BME280;3848;42.016;23.098;2022-08-16T07:32:21;96708.09;;;24.00;100.00
7614;BME280;3848;42.016;23.098;2022-08-16T07:34:48;96698.72;;;24.11;100.00
7614;BME280;3848;42.016;23.098;2022-08-16T07:37:14;96692.91;;;24.20;100.00
7614;BME280;3848;42.016;23.098;2022-08-16T07:39:42;96692.88;;;24.32;100.00
7614;BME280;3848;42.016;23.098;2022-08-16T07:42:10;96693.41;;;24.38;100.00
7614;BME280;3848;42.016;23.098;2022-08-16T07:44:37;96693.69;;;24.46;100.00
7614;BME280;3848;42.016;23.098;2022-08-16T07:47:04;96658.06;;;24.35;100.00
7614;BME280;3848;42.016;23.098;2022-08-16T07:49:31;96690.66;;;24.76;100.00
7614;BME280;3848;42.016;23.098;2022-08-16T07:51:58;96697.81;;;24.85;100.00
7614;BME280;3848;42.016;23.098;2022-08-16T07:54:25;96695.13;;;24.98;100.00
7614;BME280;3848;42.016;23.098;2022-08-16T07:56:52;96703.03;;;25.09;100.00
7614;BME280;3848;42.016;23.098;2022-08-16T07:59:21;96688.13;;;25.11;100.00
7614;BME280;3848;42.016;23.098;2022-08-16T08:01:49;96683.19;;;25.19;100.00
7614;BME280;3848;42.016;23.098;2022-08-16T08:04:17;96678.03;;;25.30;100.00
7614;BME280;3848;42.016;23.098;2022-08-16T08:06:44;96685.41;;;25.47;100.00
7614;BME280;3848;42.016;23.098;2022-08-16T08:09:11;96686.63;;;25.66;100.00
7614;BME280;3848;42.016;23.098;2022-08-16T08:11:38;96693.56;;;25.89;100.00
7614;BME280;3848;42.016;23.098;2022-08-16T08:14:05;96683.94;;;26.01;100.00
7614;BME280;3848;42.016;23.098;2022-08-16T08:16:33;96683.38;;;26.08;100.00
7614;BME280;3848;42.016;23.098;2022-08-16T08:19:00;96688.31;;;26.23;100.00
7614;BME280;3848;42.016;23.098;2022-08-16T08:21:28;96682.53;;;26.41;100.00
7614;BME280;3848;42.016;23.098;2022-08-16T08:23:55;96675.50;;;26.64;100.00
7614;BME280;3848;42.016;23.098;2022-08-16T08:26:22;96691.56;;;26.81;100.00
7614;BME280;3848;42.016;23.098;2022-08-16T08:28:49;96692.69;;;26.99;100.00
7614;BME280;3848;42.016;23.098;2022-08-16T08:31:17;96690.00;;;27.21;100.00
7614;BME280;3848;42.016;23.098;2022-08-16T08:33:45;96690.72;;;27.44;100.00
7614;BME280;3848;42.016;23.098;2022-08-16T08:36:16;96684.50;;;27.56;86.37
7614;BME280;3848;42.016;23.098;2022-08-16T08:38:46;96688.91;;;27.77;90.82
7614;BME280;3848;42.016;23.098;2022-08-16T08:41:15;96684.19;;;27.91;85.78
7614;BME280;3848;42.016;23.098;2022-08-16T08:43:42;96693.78;;;28.21;91.95
7614;BME280;3848;42.016;23.098;2022-08-16T08:46:09;96671.31;;;28.40;80.86
7614;BME280;3848;42.016;23.098;2022-08-16T08:48:36;96680.28;;;28.57;83.65
7614;BME280;3848;42.016;23.098;2022-08-16T08:51:07;96674.50;;;28.72;75.20
7614;BME280;3848;42.016;23.098;2022-08-16T08:53:35;96674.84;;;28.98;79.34
7614;BME280;3848;42.016;23.098;2022-08-16T08:56:03;96673.72;;;29.30;69.27
7614;BME280;3848;42.016;23.098;2022-08-16T08:58:31;96675.53;;;29.58;68.05
7614;BME280;3848;42.016;23.098;2022-08-16T09:01:07;96673.97;;;29.65;61.98
7614;BME280;3848;42.016;23.098;2022-08-16T09:03:36;96666.75;;;29.87;70.73
7614;BME280;3848;42.016;23.098;2022-08-16T09:06:06;96663.63;;;30.20;66.95
7614;BME280;3848;42.016;23.098;2022-08-16T09:08:34;96662.16;;;30.53;64.44
7614;BME280;3848;42.016;23.098;2022-08-16T09:11:01;96658.41;;;30.83;57.86
7614;BME280;3848;42.016;23.098;2022-08-16T09:13:28;96652.56;;;31.07;55.22
7614;BME280;3848;42.016;23.098;2022-08-16T09:15:57;96637.69;;;31.16;50.22
7614;BME280;3848;42.016;23.098;2022-08-16T09:18:24;96644.63;;;31.43;48.87
7614;BME280;3848;42.016;23.098;2022-08-16T09:20:52;96636.78;;;31.69;48.62
7614;BME280;3848;42.016;23.098;2022-08-16T09:23:22;96641.00;;;31.88;48.38
7614;BME280;3848;42.016;23.098;2022-08-16T09:25:50;96637.00;;;32.09;48.58
7614;BME280;3848;42.016;23.098;2022-08-16T09:28:17;96644.34;;;32.32;47.83
7614;BME280;3848;42.016;23.098;2022-08-16T09:30:44;96628.59;;;32.48;50.71
7614;BME280;3848;42.016;23.098;2022-08-16T09:33:13;96637.66;;;32.62;46.78
7614;BME280;3848;42.016;23.098;2022-08-16T09:35:43;96638.22;;;32.90;46.01
7614;BME280;3848;42.016;23.098;2022-08-16T09:38:11;96628.69;;;32.97;45.77
7614;BME280;3848;42.016;23.098;2022-08-16T09:40:40;96635.94;;;33.44;47.18
7614;BME280;3848;42.016;23.098;2022-08-16T09:43:08;96598.38;;;33.50;44.96
7614;BME280;3848;42.016;23.098;2022-08-16T09:45:35;96625.47;;;33.99;46.41
7614;BME280;3848;42.016;23.098;2022-08-16T09:48:05;96629.16;;;34.21;47.68
7614;BME280;3848;42.016;23.098;2022-08-16T09:50:32;96622.88;;;34.61;44.45
7614;BME280;3848;42.016;23.098;2022-08-16T09:53:00;96631.75;;;34.91;42.91
7614;BME280;3848;42.016;23.098;2022-08-16T09:55:28;96631.13;;;35.27;42.78
7614;BME280;3848;42.016;23.098;2022-08-16T09:57:56;96619.50;;;35.36;42.19
7614;BME280;3848;42.016;23.098;2022-08-16T10:00:23;96621.81;;;35.54;40.01
7614;BME280;3848;42.016;23.098;2022-08-16T10:02:51;96604.41;;;35.74;41.01
7614;BME280;3848;42.016;23.098;2022-08-16T10:05:19;96635.06;;;35.98;38.53
7614;BME280;3848;42.016;23.098;2022-08-16T10:07:47;96596.31;;;36.05;39.22
7614;BME280;3848;42.016;23.098;2022-08-16T10:10:17;96621.72;;;36.36;38.31
7614;BME280;3848;42.016;23.098;2022-08-16T10:12:45;96627.63;;;36.52;37.33
7614;BME280;3848;42.016;23.098;2022-08-16T10:15:31;96629.56;;;36.80;39.24
7614;BME280;3848;42.016;23.098;2022-08-16T10:17:58;96621.53;;;37.16;38.63
7614;BME280;3848;42.016;23.098;2022-08-16T10:20:25;96623.47;;;37.50;38.26
7614;BME280;3848;42.016;23.098;2022-08-16T10:22:53;96624.88;;;37.74;37.57
7614;BME280;3848;42.016;23.098;2022-08-16T10:25:20;96629.59;;;37.78;36.52
7614;BME280;3848;42.016;23.098;2022-08-16T10:27:47;96616.94;;;37.80;37.59
7614;BME280;3848;42.016;23.098;2022-08-16T10:30:16;96625.81;;;38.01;37.33
7614;BME280;3848;42.016;23.098;2022-08-16T10:32:44;96623.34;;;37.65;34.42
7614;BME280;3848;42.016;23.098;2022-08-16T10:35:12;96624.34;;;37.29;35.42
7614;BME280;3848;42.016;23.098;2022-08-16T10:37:39;96626.59;;;37.11;35.13
7614;BME280;3848;42.016;23.098;2022-08-16T10:40:08;96621.78;;;37.21;36.14
7614;BME280;3848;42.016;23.098;2022-08-16T10:42:35;96617.03;;;37.38;35.42
7614;BME280;3848;42.016;23.098;2022-08-16T10:45:02;96595.94;;;37.51;35.55
7614;BME280;3848;42.016;23.098;2022-08-16T10:47:29;96610.28;;;37.91;36.29
7614;BME280;3848;42.016;23.098;2022-08-16T10:49:58;96614.31;;;38.28;34.54
7614;BME280;3848;42.016;23.098;2022-08-16T10:52:25;96598.44;;;38.35;34.87
7614;BME280;3848;42.016;23.098;2022-08-16T10:54:52;96607.94;;;38.70;33.38
7614;BME280;3848;42.016;23.098;2022-08-16T10:57:19;96609.56;;;38.71;33.63
7614;BME280;3848;42.016;23.098;2022-08-16T10:59:46;96599.75;;;38.72;32.93
7614;BME280;3848;42.016;23.098;2022-08-16T11:02:13;96600.03;;;38.29;33.49
7614;BME280;3848;42.016;23.098;2022-08-16T11:04:41;96598.66;;;38.40;34.46
7614;BME280;3848;42.016;23.098;2022-08-16T11:07:10;96612.63;;;38.68;35.17
7614;BME280;3848;42.016;23.098;2022-08-16T11:09:37;96605.06;;;38.65;34.15
7614;BME280;3848;42.016;23.098;2022-08-16T11:12:05;96587.69;;;38.69;32.88
7614;BME280;3848;42.016;23.098;2022-08-16T11:14:33;96564.94;;;38.47;34.30
7614;BME280;3848;42.016;23.098;2022-08-16T11:17:02;96594.25;;;38.87;34.28
7614;BME280;3848;42.016;23.098;2022-08-16T11:19:30;96568.25;;;38.62;32.71
7614;BME280;3848;42.016;23.098;2022-08-16T11:21:58;96581.53;;;38.01;32.90
7614;BME280;3848;42.016;23.098;2022-08-16T11:24:28;96588.63;;;37.60;32.99
7614;BME280;3848;42.016;23.098;2022-08-16T11:26:58;96580.41;;;36.99;33.38
7614;BME280;3848;42.016;23.098;2022-08-16T11:29:25;96579.38;;;36.36;34.62
7614;BME280;3848;42.016;23.098;2022-08-16T11:31:52;96561.66;;;35.85;36.26
7614;BME280;3848;42.016;23.098;2022-08-16T11:34:19;96582.69;;;35.79;36.74
7614;BME280;3848;42.016;23.098;2022-08-16T11:36:46;96577.50;;;35.70;36.74
7614;BME280;3848;42.016;23.098;2022-08-16T11:39:16;96571.66;;;35.60;38.51
7614;BME280;3848;42.016;23.098;2022-08-16T11:41:44;96572.22;;;35.41;38.74
7614;BME280;3848;42.016;23.098;2022-08-16T11:44:11;96565.06;;;35.27;39.29
7614;BME280;3848;42.016;23.098;2022-08-16T11:46:38;96547.72;;;35.09;39.70
7614;BME280;3848;42.016;23.098;2022-08-16T11:49:05;96560.13;;;35.61;39.15
7614;BME280;3848;42.016;23.098;2022-08-16T11:51:32;96559.41;;;36.18;35.89
7614;BME280;3848;42.016;23.098;2022-08-16T11:53:59;96556.56;;;36.56;35.02
7614;BME280;3848;42.016;23.098;2022-08-16T11:56:26;96555.94;;;36.97;32.74
7614;BME280;3848;42.016;23.098;2022-08-16T11:58:54;96552.44;;;37.45;33.97
7614;BME280;3848;42.016;23.098;2022-08-16T12:01:21;96559.66;;;37.93;32.94
7614;BME280;3848;42.016;23.098;2022-08-16T12:03:48;96560.19;;;38.29;32.16
7614;BME280;3848;42.016;23.098;2022-08-16T12:06:16;96560.25;;;38.36;32.57
7614;BME280;3848;42.016;23.098;2022-08-16T12:08:46;96550.81;;;38.27;30.77
7614;BME280;3848;42.016;23.098;2022-08-16T12:11:14;96552.94;;;38.03;31.42
7614;BME280;3848;42.016;23.098;2022-08-16T12:13:41;96533.66;;;37.75;31.35
7614;BME280;3848;42.016;23.098;2022-08-16T12:16:11;96547.63;;;38.03;35.56
7614;BME280;3848;42.016;23.098;2022-08-16T12:18:39;96534.09;;;38.33;31.85
7614;BME280;3848;42.016;23.098;2022-08-16T12:21:06;96550.53;;;38.96;32.46
7614;BME280;3848;42.016;23.098;2022-08-16T12:25:34;96543.97;;;38.85;31.74
7614;BME280;3848;42.016;23.098;2022-08-16T12:28:03;96544.13;;;38.57;31.19
7614;BME280;3848;42.016;23.098;2022-08-16T12:30:32;96557.59;;;38.49;32.33
7614;BME280;3848;42.016;23.098;2022-08-16T12:33:01;96552.94;;;37.97;33.10
7614;BME280;3848;42.016;23.098;2022-08-16T12:35:29;96552.50;;;37.59;33.54
7614;BME280;3848;42.016;23.098;2022-08-16T12:37:58;96553.44;;;37.16;33.01
7614;BME280;3848;42.016;23.098;2022-08-16T12:40:34;96549.34;;;36.86;34.13
7614;BME280;3848;42.016;23.098;2022-08-16T12:43:04;96539.56;;;36.86;34.17
7614;BME280;3848;42.016;23.098;2022-08-16T12:45:34;96537.63;;;37.02;35.79
7614;BME280;3848;42.016;23.098;2022-08-16T12:48:01;96532.06;;;37.24;33.22
7614;BME280;3848;42.016;23.098;2022-08-16T12:50:46;96530.25;;;37.53;33.17
7614;BME280;3848;42.016;23.098;2022-08-16T12:53:13;96533.66;;;37.75;33.04
7614;BME280;3848;42.016;23.098;2022-08-16T12:55:42;96529.50;;;37.66;30.18
7614;BME280;3848;42.016;23.098;2022-08-16T12:58:09;96535.59;;;38.01;31.06
7614;BME280;3848;42.016;23.098;2022-08-16T13:00:36;96526.69;;;38.28;30.25
7614;BME280;3848;42.016;23.098;2022-08-16T13:03:03;96536.78;;;38.59;30.66
7614;BME280;3848;42.016;23.098;2022-08-16T13:05:31;96533.75;;;39.02;31.15
7614;BME280;3848;42.016;23.098;2022-08-16T13:08:07;96523.09;;;39.42;29.96
7614;BME280;3848;42.016;23.098;2022-08-16T13:10:34;96536.19;;;39.03;32.07
7614;BME280;3848;42.016;23.098;2022-08-16T13:13:04;96525.31;;;38.39;31.73
7614;BME280;3848;42.016;23.098;2022-08-16T13:15:31;96528.44;;;38.08;31.11
7614;BME280;3848;42.016;23.098;2022-08-16T13:17:58;96528.19;;;37.48;31.49